KEEN/EEN METAR and TAF weather

Enter ICAO airport designator
Station Type Date Time Source
KEEN METAR 2021/05/11 22:56 UTC NOAA

KEEN 112256Z AUTO 26011G21KT 10SM FEW075 12/M04 A2994 RMK AO2 SLP146 T01221039 $


Station Type Date Time Source
KEEN Decoded METAR 2021/05/11 22:56 UTC NOAA

Keene, Dillant-Hopkins Airport, NH, United States (KEEN) 42-54N 072-16W
May 11, 2021 - 06:56 PM EDT / 2021.05.11 2256 UTC
Wind: from the W (260 degrees) at 13 MPH (11 KT) gusting to 24 MPH (21 KT):0
Visibility: 10 mile(s):0
Sky conditions: mostly clear
Temperature: 54.0 F (12.2 C)
Dew Point: 25.0 F (-3.9 C)
Relative Humidity: 32%
Pressure (altimeter): 29.94 in. Hg (1013 hPa)
ob: KEEN 112256Z AUTO 26011G21KT 10SM FEW075 12/M04 A2994 RMK AO2 SLP146 T01221039
cycle: 23

Station Type Date Time Source
KEEN TAF UTC NOAA

Error!

Example: see airport list